Time;durP1;ratioP1;P1;durP2;ratioP2;P2;SDS_P1;SDS_P2;PMS_P1;PMS_P2;Temp;Humidity;BMP_temperature;BMP_pressure;BME280_temperature;BME280_humidity;BME280_pressure;Samples;Min_cycle;Max_cycle;Signal;HPM_P1;HPM_P2
2023/04/08 00:07:44;;;;;;;2.63;1.13;;;;;;;22.78;33.70;102662.94;20929270;28;20103;-72
2023/04/08 00:17:45;;;;;;;2.25;1.10;;;;;;;22.65;33.89;102654.88;21005328;28;20521;-72
2023/04/08 00:27:47;;;;;;;4.70;1.08;;;;;;;22.74;33.40;102664.53;20948343;28;20045;-72
2023/04/08 00:37:48;;;;;;;3.80;0.90;;;;;;;22.62;33.62;102674.91;20919518;28;20146;-72
2023/04/08 00:47:51;;;;;;;1.13;1.00;;;;;;;22.62;33.85;102690.78;20891444;28;20484;-72
2023/04/08 00:57:53;;;;;;;1.55;1.15;;;;;;;22.74;33.90;102736.25;20906186;28;20041;-73
2023/04/08 01:07:55;;;;;;;2.47;1.08;;;;;;;22.71;33.55;102734.78;20914185;28;20045;-72
2023/04/08 01:17:59;;;;;;;2.35;1.10;;;;;;;22.61;33.48;102703.06;20912074;28;20397;-73
2023/04/08 01:28:04;;;;;;;1.10;0.93;;;;;;;22.67;33.59;102733.59;20889687;28;20037;-72
2023/04/08 01:38:13;;;;;;;1.27;1.10;;;;;;;22.69;33.48;102769.63;20911400;28;20094;-73
2023/04/08 01:48:15;;;;;;;1.67;1.00;;;;;;;22.54;33.71;102739.47;20907059;28;20440;-73
2023/04/08 01:58:20;;;;;;;1.08;0.98;;;;;;;22.68;33.49;102782.75;20913231;28;20029;-73
2023/04/08 02:08:21;;;;;;;1.55;1.00;;;;;;;22.58;33.52;102762.97;20912062;28;20041;-73
2023/04/08 02:18:28;;;;;;;2.72;1.27;;;;;;;22.53;33.87;102757.31;20866966;28;20042;-73
2023/04/08 02:28:32;;;;;;;1.27;1.10;;;;;;;22.55;33.79;102760.72;20904484;28;20380;-76
2023/04/08 02:38:34;;;;;;;2.35;1.35;;;;;;;22.54;33.79;102781.31;20904623;28;20337;-73
2023/04/08 02:48:35;;;;;;;8.95;1.52;;;;;;;22.62;34.26;102782.88;20908716;28;20041;-73
2023/04/08 02:58:39;;;;;;;2.75;1.30;;;;;;;22.81;34.26;102804.75;20910083;28;20052;-73
2023/04/08 03:08:44;;;;;;;4.50;1.63;;;;;;;22.97;34.18;102819.91;20948418;28;20070;-73
2023/04/08 03:18:45;;;;;;;6.45;1.20;;;;;;;23.00;34.48;102819.41;20989106;28;20066;-73
2023/04/08 03:28:46;;;;;;;1.63;1.02;;;;;;;22.95;33.92;102805.31;20990617;28;20037;-73
2023/04/08 03:38:48;;;;;;;3.22;1.30;;;;;;;22.95;33.83;102821.22;20991008;28;20044;-72
2023/04/08 03:48:49;;;;;;;2.38;1.45;;;;;;;22.94;34.73;102836.28;20906630;28;20045;-73
2023/04/08 03:58:51;;;;;;;3.22;1.13;;;;;;;22.86;33.93;102856.19;20911507;28;20135;-72
2023/04/08 04:08:54;;;;;;;4.63;1.23;;;;;;;22.63;31.19;102885.84;20920452;28;20037;-73
2023/04/08 04:18:55;;;;;;;1.25;0.98;;;;;;;22.27;32.09;102846.03;20920572;28;20033;-73
2023/04/08 04:28:57;;;;;;;1.13;1.02;;;;;;;22.25;30.71;102901.19;20919828;28;20483;-73
2023/04/08 04:38:58;;;;;;;2.65;1.20;;;;;;;21.93;29.85;102885.88;20880999;28;20037;-73
2023/04/08 04:49:00;;;;;;;2.00;1.10;;;;;;;21.93;30.70;102900.66;20984936;28;20045;-73
2023/04/08 04:59:04;;;;;;;1.35;1.25;;;;;;;21.94;30.82;102907.09;20934027;28;20058;-71
2023/04/08 05:09:06;;;;;;;2.13;1.08;;;;;;;21.84;30.58;102910.47;20916308;28;20045;-72
2023/04/08 05:19:07;;;;;;;1.38;1.10;;;;;;;21.84;30.83;102924.41;20916268;28;20430;-72
2023/04/08 05:29:08;;;;;;;1.23;0.80;;;;;;;21.73;30.62;102914.94;20914379;28;20057;-73
2023/04/08 05:39:09;;;;;;;1.33;1.08;;;;;;;21.71;30.38;102953.31;20914192;28;20546;-73
2023/04/08 05:49:16;;;;;;;2.13;1.13;;;;;;;21.40;30.09;102926.59;20875409;28;20392;-72
2023/04/08 05:59:19;;;;;;;1.80;1.13;;;;;;;21.57;29.39;102957.41;20911491;28;20045;-73
2023/04/08 06:09:21;;;;;;;2.15;1.20;;;;;;;21.45;30.68;102911.97;20910811;28;20041;-71
2023/04/08 06:19:23;;;;;;;1.40;1.13;;;;;;;21.52;30.93;102904.34;20914296;28;20040;-72
2023/04/08 06:29:25;;;;;;;2.33;1.10;;;;;;;21.53;29.77;102931.09;20909229;28;20029;-72
2023/04/08 06:39:26;;;;;;;1.52;1.20;;;;;;;21.45;29.73;102968.53;20908855;28;20102;-73
2023/04/08 06:49:27;;;;;;;1.15;0.98;;;;;;;21.08;29.28;102942.66;20908776;28;20403;-73
2023/04/08 06:59:30;;;;;;;0.98;0.85;;;;;;;21.20;30.25;102971.38;20908123;28;20143;-72
2023/04/08 07:09:31;;;;;;;1.98;1.05;;;;;;;21.28;30.00;102992.50;20907234;28;20400;-73
2023/04/08 07:19:33;;;;;;;2.00;1.40;;;;;;;21.01;29.81;102939.94;20907378;28;20094;-72
2023/04/08 07:29:34;;;;;;;1.30;1.20;;;;;;;20.62;30.11;102891.19;20908137;28;20041;-72
2023/04/08 07:39:35;;;;;;;1.55;0.93;;;;;;;21.25;30.67;103002.16;20884575;28;20091;-72
2023/04/08 07:49:37;;;;;;;0.98;0.88;;;;;;;21.20;30.10;103004.78;20920143;28;20115;-73
2023/04/08 07:59:39;;;;;;;1.02;0.90;;;;;;;21.13;29.60;103004.03;20841093;28;20574;-73
2023/04/08 08:09:40;;;;;;;2.35;1.10;;;;;;;21.09;29.89;103008.38;20982224;28;20040;-72
2023/04/08 08:19:42;;;;;;;1.58;1.08;;;;;;;21.00;29.05;103027.31;20938770;28;20024;-72
2023/04/08 08:29:43;;;;;;;3.17;1.13;;;;;;;20.92;29.15;103049.88;20919075;28;20415;-72
2023/04/08 08:39:44;;;;;;;1.15;1.05;;;;;;;20.90;29.07;103076.25;20977078;28;20376;-73
2023/04/08 08:49:46;;;;;;;1.00;0.90;;;;;;;20.69;29.39;103063.59;20999568;28;20045;-72
2023/04/08 08:59:48;;;;;;;1.20;0.80;;;;;;;20.75;29.78;103074.63;20998807;28;20052;-72
2023/04/08 09:09:51;;;;;;;1.15;1.00;;;;;;;20.77;29.97;103083.63;20999562;28;20505;-72
2023/04/08 09:20:13;;;;;;;1.00;0.90;;;;;;;20.75;28.78;103133.06;20980658;28;20450;-73
2023/04/08 09:30:15;;;;;;;1.33;1.05;;;;;;;20.53;28.57;103126.22;21000238;28;20090;-72
2023/04/08 09:40:17;;;;;;;1.10;1.00;;;;;;;20.58;28.53;103145.84;20996952;28;20044;-72
2023/04/08 09:50:21;;;;;;;1.63;1.17;;;;;;;20.50;28.55;103154.47;20996428;28;20040;-73
2023/04/08 10:00:42;;;;;;;1.85;1.42;;;;;;;20.45;28.93;103166.25;20995199;28;20365;-72
2023/04/08 10:10:50;;;;;;;1.67;1.02;;;;;;;20.65;29.56;103190.31;20987223;28;20078;-72
2023/04/08 10:20:51;;;;;;;1.27;0.80;;;;;;;20.59;29.20;103186.50;20981478;28;20562;-73
2023/04/08 10:30:55;;;;;;;6.47;1.50;;;;;;;20.48;28.44;103198.31;20917328;28;20028;-72
2023/04/08 10:40:57;;;;;;;2.15;0.98;;;;;;;20.36;27.68;103212.06;20995728;28;20483;-72
2023/04/08 10:51:05;;;;;;;1.15;0.90;;;;;;;20.14;28.10;103222.66;20991609;28;20048;-72
2023/04/08 11:01:09;;;;;;;3.07;1.00;;;;;;;20.25;27.96;103249.78;20990892;28;20037;-73
2023/04/08 11:11:11;;;;;;;3.17;1.20;;;;;;;20.17;28.19;103236.13;21001325;28;20450;-72
2023/04/08 11:21:12;;;;;;;1.95;1.08;;;;;;;20.02;27.54;103233.63;20989510;28;20106;-73
2023/04/08 11:31:14;;;;;;;1.17;1.08;;;;;;;19.91;26.94;103250.09;21002332;28;20024;-72
2023/04/08 11:41:16;;;;;;;2.17;1.13;;;;;;;20.00;29.54;103276.59;20984820;28;20048;-69
2023/04/08 11:51:17;;;;;;;3.13;1.30;;;;;;;20.01;30.06;103256.91;21002314;28;20075;-72
2023/04/08 12:01:20;;;;;;;2.95;1.08;;;;;;;20.02;30.89;103268.88;20985525;28;20449;-70
2023/04/08 12:11:22;;;;;;;3.10;1.20;;;;;;;20.18;31.45;103296.19;21000976;28;20442;-70
2023/04/08 12:21:24;;;;;;;2.65;1.02;;;;;;;20.37;31.24;103338.06;20997544;28;20032;-70
2023/04/08 12:31:27;;;;;;;2.88;1.02;;;;;;;20.11;31.54;103267.56;20991767;28;20074;-70
2023/04/08 12:41:28;;;;;;;3.60;1.27;;;;;;;20.45;31.51;103313.63;21028567;28;20479;-71
2023/04/08 12:51:29;;;;;;;1.75;1.10;;;;;;;20.64;31.61;103334.13;21001679;28;20044;-71
2023/04/08 13:01:31;;;;;;;1.45;1.10;;;;;;;20.65;31.54;103313.56;20974232;28;20091;-70
2023/04/08 13:11:35;;;;;;;3.03;1.10;;;;;;;20.74;31.55;103323.38;20995473;28;20460;-70
2023/04/08 13:21:36;;;;;;;1.65;1.08;;;;;;;20.71;31.81;103298.78;20981816;28;20044;-70
2023/04/08 13:31:41;;;;;;;1.25;1.05;;;;;;;20.87;31.54;103321.59;21000370;28;20070;-69
2023/04/08 13:41:43;;;;;;;2.15;1.15;;;;;;;20.83;31.73;103304.47;20995115;28;20048;-69
2023/04/08 13:51:47;;;;;;;1.13;1.02;;;;;;;21.04;31.99;103339.47;20982413;28;20442;-70
2023/04/08 14:01:52;;;;;;;1.27;0.80;;;;;;;20.65;31.79;103245.94;20996560;28;20052;-70
2023/04/08 14:11:55;;;;;;;1.30;1.02;;;;;;;21.15;32.39;103352.66;20998846;28;20430;-69
2023/04/08 14:21:56;;;;;;;1.35;1.10;;;;;;;21.18;32.60;103335.50;20987603;28;20117;-71
2023/04/08 14:31:57;;;;;;;1.33;0.98;;;;;;;21.18;32.81;103355.00;20997545;28;20105;-70
2023/04/08 14:42:01;;;;;;;2.10;0.80;;;;;;;21.07;32.51;103327.88;20995179;28;20036;-71
2023/04/08 14:52:03;;;;;;;0.80;0.80;;;;;;;21.15;33.03;103330.38;20994382;28;20549;-69
2023/04/08 15:02:04;;;;;;;9.20;1.10;;;;;;;21.23;32.76;103330.13;21002117;28;20027;-70
2023/04/08 15:12:06;;;;;;;2.55;1.13;;;;;;;21.26;33.14;103326.91;20998019;28;20433;-71
2023/04/08 15:22:07;;;;;;;1.35;1.05;;;;;;;21.28;33.13;103305.22;20990881;28;20073;-71
2023/04/08 15:32:09;;;;;;;1.27;0.90;;;;;;;21.24;33.20;103301.19;20990666;28;20044;-71
2023/04/08 15:42:10;;;;;;;2.63;0.90;;;;;;;21.24;33.36;103273.34;20984192;28;20063;-70
2023/04/08 15:52:12;;;;;;;1.98;1.00;;;;;;;21.33;33.33;103278.66;20985171;28;20028;-69
2023/04/08 16:02:13;;;;;;;2.35;1.23;;;;;;;21.47;33.28;103283.03;21006898;28;20460;-71
2023/04/08 16:12:15;;;;;;;1.27;1.10;;;;;;;21.48;33.41;103252.16;21016058;28;20041;-70
2023/04/08 16:22:17;;;;;;;1.35;1.00;;;;;;;21.45;33.17;103229.50;21015799;28;20048;-71
2023/04/08 16:32:18;;;;;;;1.45;0.90;;;;;;;21.58;33.29;103223.78;21008034;28;20055;-69
2023/04/08 16:42:19;;;;;;;1.60;1.00;;;;;;;21.60;33.10;103210.47;20991573;28;20047;-70
2023/04/08 16:52:21;;;;;;;1.85;1.08;;;;;;;21.62;32.77;103221.38;21006292;28;20036;-72
2023/04/08 17:02:22;;;;;;;1.58;1.02;;;;;;;21.67;32.95;103216.84;21004240;28;20056;-70
2023/04/08 17:12:23;;;;;;;1.40;1.00;;;;;;;21.69;33.38;103172.84;21005347;28;20041;-71
2023/04/08 17:22:26;;;;;;;1.15;0.90;;;;;;;21.78;32.89;103168.69;21004367;28;20048;-70
2023/04/08 17:32:32;;;;;;;2.75;1.10;;;;;;;21.81;32.63;103162.66;21003013;28;20044;-71
2023/04/08 17:42:34;;;;;;;1.75;0.65;;;;;;;21.75;33.04;103135.69;20992402;28;20033;-69
2023/04/08 17:52:35;;;;;;;3.03;1.30;;;;;;;21.99;33.51;103163.69;21001107;28;20086;-70
2023/04/08 18:02:37;;;;;;;5.18;1.40;;;;;;;21.94;33.74;103128.16;21011455;28;20470;-70
2023/04/08 18:12:38;;;;;;;2.35;1.13;;;;;;;22.00;34.36;103123.59;21066769;28;20044;-70
2023/04/08 18:22:39;;;;;;;5.32;1.20;;;;;;;21.83;34.25;103085.22;21057793;28;20533;-70
2023/04/08 18:32:47;;;;;;;3.92;1.20;;;;;;;22.12;34.79;103095.78;20991903;28;20094;-70
2023/04/08 18:42:48;;;;;;;3.28;1.35;;;;;;;21.59;30.67;103058.31;20991278;28;20049;-71
2023/04/08 18:52:49;;;;;;;2.35;1.10;;;;;;;21.20;28.64;103038.19;21017141;28;20074;-69
2023/04/08 19:02:51;;;;;;;16.80;2.00;;;;;;;21.22;26.55;103024.06;21008703;28;20474;-71
2023/04/08 19:12:52;;;;;;;3.28;1.10;;;;;;;20.83;27.26;102992.81;21000429;28;20106;-72
2023/04/08 19:22:54;;;;;;;4.40;1.17;;;;;;;20.89;25.87;102993.81;20994749;28;20422;-70
2023/04/08 19:32:57;;;;;;;3.13;0.90;;;;;;;20.22;28.19;102885.19;20997621;28;20114;-72
2023/04/08 19:42:58;;;;;;;4.45;1.25;;;;;;;20.57;24.96;102963.31;20998907;28;20446;-72
2023/04/08 19:52:59;;;;;;;4.32;1.55;;;;;;;20.81;23.83;102942.97;21005662;28;20094;-73
2023/04/08 20:03:01;;;;;;;1.63;1.38;;;;;;;20.97;23.85;102946.19;20979669;28;20049;-71
2023/04/08 20:13:02;;;;;;;0.98;0.98;;;;;;;20.99;24.83;102944.03;20924355;28;20041;-72
2023/04/08 20:23:06;;;;;;;1.83;1.05;;;;;;;20.91;25.55;102924.88;21003030;28;20455;-72
2023/04/08 20:33:10;;;;;;;3.33;1.52;;;;;;;20.44;24.02;102900.34;21070205;28;20032;-72
2023/04/08 20:43:12;;;;;;;3.03;1.40;;;;;;;20.36;22.02;102891.44;21085197;28;20444;-73
2023/04/08 20:53:18;;;;;;;2.10;1.20;;;;;;;20.37;24.94;102918.16;21085088;28;20145;-72
2023/04/08 21:03:19;;;;;;;1.77;1.23;;;;;;;20.55;25.48;102929.34;21085123;28;20032;-72
2023/04/08 21:13:32;;;;;;;1.30;1.20;;;;;;;20.56;24.80;102919.91;21052130;28;20107;-72
2023/04/08 21:23:36;;;;;;;2.90;1.38;;;;;;;20.16;22.77;102925.88;20997660;28;20029;-72
2023/04/08 21:33:41;;;;;;;2.35;1.40;;;;;;;20.36;22.45;102913.69;20967681;28;20045;-72
2023/04/08 21:43:42;;;;;;;1.80;1.05;;;;;;;20.47;24.64;102935.16;20914607;28;20053;-72
2023/04/08 21:53:44;;;;;;;2.03;1.17;;;;;;;20.39;24.95;102924.34;20914279;28;20044;-72
2023/04/08 22:03:48;;;;;;;1.75;1.38;;;;;;;20.30;22.79;102905.19;21051801;28;20460;-72
2023/04/08 22:13:49;;;;;;;1.45;1.33;;;;;;;20.50;22.27;102923.63;21079360;28;20028;-72
2023/04/08 22:23:51;;;;;;;3.13;1.80;;;;;;;20.43;22.37;102909.75;21077942;28;20036;-72
2023/04/08 22:33:55;;;;;;;2.80;1.95;;;;;;;20.48;20.78;102906.31;21077748;28;20057;-72
2023/04/08 22:43:56;;;;;;;3.22;1.88;;;;;;;20.41;20.57;102902.72;21076187;28;20047;-72
2023/04/08 22:53:57;;;;;;;2.13;1.52;;;;;;;20.26;20.47;102890.06;21076118;28;20048;-72
2023/04/08 23:03:59;;;;;;;1.98;1.52;;;;;;;20.30;22.95;102902.41;21075660;28;20066;-73
2023/04/08 23:14:00;;;;;;;3.90;1.75;;;;;;;20.28;21.09;102895.38;21088469;28;20035;-71
2023/04/08 23:24:02;;;;;;;2.90;1.73;;;;;;;20.17;21.79;102930.34;21011140;28;20052;-71
2023/04/08 23:34:03;;;;;;;3.10;1.67;;;;;;;19.25;22.36;102824.44;20909953;28;20025;-70
2023/04/08 23:44:05;;;;;;;4.60;1.65;;;;;;;19.63;22.60;102939.31;20989171;28;20044;-68
2023/04/08 23:54:09;;;;;;;4.38;1.77;;;;;;;19.44;23.00;102952.22;20929945;28;20041;-68
